Onweer radar Meer informatie blitzortung!


Regen radar Meer informatie rain snow radar



METAR rapporten vliegvelden

   
EHVK - Volkel Rnlafb, Netherlands
Afstand tot: ZW 18 km
Gewijzigd: 28-05-2020 19:55
Bewolking  
Bewolking  
   Wind: NO 20.4 km/h
Wind: NO 20.4 km/h
Temperatuur: 19°C
Dauwpunt: 2°C
Vochtigheid: 32%
Barometer: 1030 hPa
Bewolking: Bewolking
Zicht: meer dan 10 km
Bewolking: Bewolking 14000 ft
EHVK 281755Z AUTO 04011KT 9999 OVC140 19/02 Q1030 BLU
EDLV - Niederrhein, Germany
Afstand tot: ZO 25 km
Gewijzigd: 26-05-2020 15:50
Verouderd
Helder  
Helder  
   Wind: NW 13 km/h
Wind: NW 13 km/h
Temperatuur: 22°C
Dauwpunt: 7°C
Vochtigheid: 38%
Barometer: 1034 hPa
Zicht: meer dan 10 km
Bewolking: Helder
EDLV 261350Z 32007KT CAVOK 22/07 Q1034
EHDL - Deelen Rnlafb, Netherlands
Afstand tot: N 35 km
Gewijzigd: 28-05-2020 19:55
Bewolking  
Bewolking  
   Wind: Noorden 24.1 km/h
Wind: Noorden 24.1 km/h
Temperatuur: 17°C
Dauwpunt: 3°C
Vochtigheid: 39%
Barometer: 1031 hPa
Bewolking: Bewolking
Zicht: meer dan 10 km
Bewolking: Bewolking 12000 ft
EHDL 281755Z AUTO 01013KT 320V090 9999 OVC120 17/03 Q1031 BLU
EHEH - Eindhoven Rnlafb, Netherlands
Afstand tot: ZW 48 km
Gewijzigd: 28-05-2020 19:55
Bewolking  
Bewolking  
   Wind: NO 18.5 km/h
Wind: NO 18.5 km/h
Temperatuur: 20°C
Dauwpunt: 2°C
Vochtigheid: 30%
Barometer: 1030 hPa
Bewolking: Bewolking
Zicht: meer dan 10 km
Bewolking: Bewolking 13000 ft
EHEH 281755Z AUTO 05010KT 020V090 9999 OVC130 20/02 Q1030 BLU
EHGR - Gilze-Rijen Rnla, Netherlands
Afstand tot: WZW 70 km
Gewijzigd: 28-05-2020 19:55
Bewolking  
Bewolking  
   Wind: Noorden 24.1 km/h
Wind: Noorden 24.1 km/h
Temperatuur: 19°C
Dauwpunt: 7°C
Vochtigheid: 46%
Barometer: 1030 hPa
Bewolking: Bewolking
Zicht: meer dan 10 km
Bewolking: Bewolking 13000 ft
EHGR 281755Z AUTO 01013KT 320V060 9999 OVC130 19/07 Q1030 BLU 04012KT CAVOK
EBBL - Kleine-Brogel(Ba, Belgium
Afstand tot: ZZW 71 km
Gewijzigd: 28-05-2020 19:55
Licht bewolkt  
Licht bewolkt  
   Wind: ONO 16.7 km/h
Wind: ONO 16.7 km/h
Temperatuur: 19°C
Dauwpunt: 2°C
Vochtigheid: 32%
Barometer: 1030 hPa
Bewolking: Licht bewolkt
Zicht: meer dan 10 km
Bewolking: Licht bewolkt 16000 ft
EBBL 281755Z AUTO 06009KT 9999 FEW160/// 19/02 Q1030 BLU

Script ontwikkeld door  Saratoga-weather.org Aangepast voor de template door  Weerstation Leuven

U vindt ons ook hier:

UK Metoffice

European Weather Network

WeatherCloud

Weather Underground

AWEKAS

Apparatuur in gebruik:

Weerstation
Davis VP2

Weerprogramma
Meteobridge

Weercomputer
Asus WL -330N3G

Webleverancier
Ongekend.nl

Davis VP2

Meteobridge

Asus WL -330N3G

Ongekend.nl